Aviation Digital Data Service (ADDS)

Output produced by METARs form (0236 UTC 16 January 2019)
found at http://www.aviationweather.gov/metar/data/
 
VNKT 160220Z 12003KT 1000 BR FEW010 05/04 Q1023 NOSIG
TAF VNKT 152300Z 1600/1624 00000KT 2000 BR FEW010 
     PROB40 1601/1603 1000 BR 
     BECMG 1604/1605 11003KT 4000 HZ FEW015 
     BECMG 1607/1608 27008KT 7000 FEW020 SCT100 
     BECMG 1613/1614 VRB02KT 5000 BR FEW015 SCT100 BKN250